sensor_id;sensor_type;location;lat;lon;timestamp;P1;durP1;ratioP1;P2;durP2;ratioP2
18695;SDS011;22617;43.690;27.956;2023-11-21T00:01:27;10.03;;;5.60;;
18695;SDS011;22617;43.690;27.956;2023-11-21T00:06:31;9.30;;;5.80;;
18695;SDS011;22617;43.690;27.956;2023-11-21T00:11:36;9.93;;;5.83;;
18695;SDS011;22617;43.690;27.956;2023-11-21T00:16:39;11.30;;;5.23;;
18695;SDS011;22617;43.690;27.956;2023-11-21T00:21:43;11.13;;;5.67;;
18695;SDS011;22617;43.690;27.956;2023-11-21T00:26:48;9.37;;;5.63;;
18695;SDS011;22617;43.690;27.956;2023-11-21T00:31:52;9.03;;;5.50;;
18695;SDS011;22617;43.690;27.956;2023-11-21T00:36:56;8.80;;;5.20;;
18695;SDS011;22617;43.690;27.956;2023-11-21T00:42:02;9.67;;;5.53;;
18695;SDS011;22617;43.690;27.956;2023-11-21T00:47:06;8.67;;;5.60;;
18695;SDS011;22617;43.690;27.956;2023-11-21T00:52:10;8.33;;;5.33;;
18695;SDS011;22617;43.690;27.956;2023-11-21T00:57:15;10.87;;;5.93;;
18695;SDS011;22617;43.690;27.956;2023-11-21T01:02:18;9.67;;;5.50;;
18695;SDS011;22617;43.690;27.956;2023-11-21T01:07:22;11.43;;;6.10;;
18695;SDS011;22617;43.690;27.956;2023-11-21T01:12:27;10.20;;;5.80;;
18695;SDS011;22617;43.690;27.956;2023-11-21T01:17:31;8.83;;;5.40;;
18695;SDS011;22617;43.690;27.956;2023-11-21T01:22:36;10.17;;;5.27;;
18695;SDS011;22617;43.690;27.956;2023-11-21T01:27:41;9.70;;;5.03;;
18695;SDS011;22617;43.690;27.956;2023-11-21T01:32:44;10.73;;;5.60;;
18695;SDS011;22617;43.690;27.956;2023-11-21T01:37:48;9.60;;;5.50;;
18695;SDS011;22617;43.690;27.956;2023-11-21T01:42:54;8.67;;;5.30;;
18695;SDS011;22617;43.690;27.956;2023-11-21T01:47:57;10.37;;;5.43;;
18695;SDS011;22617;43.690;27.956;2023-11-21T01:53:03;11.90;;;5.73;;
18695;SDS011;22617;43.690;27.956;2023-11-21T01:58:09;10.67;;;5.17;;
18695;SDS011;22617;43.690;27.956;2023-11-21T02:03:14;9.17;;;5.03;;
18695;SDS011;22617;43.690;27.956;2023-11-21T02:08:18;9.73;;;5.10;;
18695;SDS011;22617;43.690;27.956;2023-11-21T02:13:23;10.97;;;5.57;;
18695;SDS011;22617;43.690;27.956;2023-11-21T02:18:27;11.73;;;5.07;;
18695;SDS011;22617;43.690;27.956;2023-11-21T02:23:33;10.07;;;5.33;;
18695;SDS011;22617;43.690;27.956;2023-11-21T02:28:37;10.03;;;5.57;;
18695;SDS011;22617;43.690;27.956;2023-11-21T02:33:41;9.63;;;5.87;;
18695;SDS011;22617;43.690;27.956;2023-11-21T02:38:47;10.97;;;5.93;;
18695;SDS011;22617;43.690;27.956;2023-11-21T02:43:50;15.83;;;6.70;;
18695;SDS011;22617;43.690;27.956;2023-11-21T02:48:54;14.67;;;6.60;;
18695;SDS011;22617;43.690;27.956;2023-11-21T02:53:59;13.63;;;5.63;;
18695;SDS011;22617;43.690;27.956;2023-11-21T02:59:04;15.33;;;6.80;;
18695;SDS011;22617;43.690;27.956;2023-11-21T03:04:08;11.60;;;6.70;;
18695;SDS011;22617;43.690;27.956;2023-11-21T03:09:13;14.57;;;5.70;;
18695;SDS011;22617;43.690;27.956;2023-11-21T03:14:16;10.90;;;5.67;;
18695;SDS011;22617;43.690;27.956;2023-11-21T03:19:19;10.13;;;4.80;;
18695;SDS011;22617;43.690;27.956;2023-11-21T03:24:24;10.03;;;4.87;;
18695;SDS011;22617;43.690;27.956;2023-11-21T03:29:28;10.03;;;4.90;;
18695;SDS011;22617;43.690;27.956;2023-11-21T03:34:31;8.43;;;4.90;;
18695;SDS011;22617;43.690;27.956;2023-11-21T03:39:37;9.13;;;5.30;;
18695;SDS011;22617;43.690;27.956;2023-11-21T03:44:40;10.17;;;6.03;;
18695;SDS011;22617;43.690;27.956;2023-11-21T03:49:44;10.67;;;5.50;;
18695;SDS011;22617;43.690;27.956;2023-11-21T03:54:52;9.20;;;5.57;;
18695;SDS011;22617;43.690;27.956;2023-11-21T03:59:55;9.00;;;5.23;;
18695;SDS011;22617;43.690;27.956;2023-11-21T04:04:59;9.67;;;5.00;;
18695;SDS011;22617;43.690;27.956;2023-11-21T04:10:04;10.87;;;5.50;;
18695;SDS011;22617;43.690;27.956;2023-11-21T04:15:10;9.20;;;5.10;;
18695;SDS011;22617;43.690;27.956;2023-11-21T04:20:15;9.43;;;5.60;;
18695;SDS011;22617;43.690;27.956;2023-11-21T04:25:20;8.73;;;5.40;;
18695;SDS011;22617;43.690;27.956;2023-11-21T04:30:25;12.33;;;5.97;;
18695;SDS011;22617;43.690;27.956;2023-11-21T04:35:28;9.77;;;5.77;;
18695;SDS011;22617;43.690;27.956;2023-11-21T04:40:33;12.30;;;5.57;;
18695;SDS011;22617;43.690;27.956;2023-11-21T04:45:37;11.67;;;5.70;;
18695;SDS011;22617;43.690;27.956;2023-11-21T04:50:43;11.00;;;5.67;;
18695;SDS011;22617;43.690;27.956;2023-11-21T04:55:47;12.13;;;5.23;;
18695;SDS011;22617;43.690;27.956;2023-11-21T05:00:51;9.20;;;5.07;;
18695;SDS011;22617;43.690;27.956;2023-11-21T05:05:55;9.43;;;4.93;;
18695;SDS011;22617;43.690;27.956;2023-11-21T05:11:00;9.53;;;4.67;;
18695;SDS011;22617;43.690;27.956;2023-11-21T05:16:04;10.63;;;5.03;;
18695;SDS011;22617;43.690;27.956;2023-11-21T05:21:08;9.40;;;5.07;;
18695;SDS011;22617;43.690;27.956;2023-11-21T05:26:13;10.20;;;5.07;;
18695;SDS011;22617;43.690;27.956;2023-11-21T05:31:17;10.33;;;4.30;;
18695;SDS011;22617;43.690;27.956;2023-11-21T05:36:21;8.97;;;4.47;;
18695;SDS011;22617;43.690;27.956;2023-11-21T05:41:26;8.37;;;4.40;;
18695;SDS011;22617;43.690;27.956;2023-11-21T05:46:29;9.10;;;4.60;;
18695;SDS011;22617;43.690;27.956;2023-11-21T05:51:33;7.17;;;4.37;;
18695;SDS011;22617;43.690;27.956;2023-11-21T05:56:38;9.37;;;4.33;;
18695;SDS011;22617;43.690;27.956;2023-11-21T06:01:41;8.43;;;4.30;;
18695;SDS011;22617;43.690;27.956;2023-11-21T06:06:45;7.83;;;4.20;;
18695;SDS011;22617;43.690;27.956;2023-11-21T06:11:49;8.43;;;4.10;;
18695;SDS011;22617;43.690;27.956;2023-11-21T06:22:22;10.33;;;5.17;;
18695;SDS011;22617;43.690;27.956;2023-11-21T06:27:26;7.83;;;4.30;;
18695;SDS011;22617;43.690;27.956;2023-11-21T06:32:31;6.27;;;4.10;;
18695;SDS011;22617;43.690;27.956;2023-11-21T06:37:35;8.33;;;4.13;;
18695;SDS011;22617;43.690;27.956;2023-11-21T06:42:40;8.83;;;4.27;;
18695;SDS011;22617;43.690;27.956;2023-11-21T06:47:43;9.83;;;4.30;;
18695;SDS011;22617;43.690;27.956;2023-11-21T06:52:47;8.20;;;4.47;;
18695;SDS011;22617;43.690;27.956;2023-11-21T06:57:52;9.23;;;4.37;;
18695;SDS011;22617;43.690;27.956;2023-11-21T07:02:56;10.13;;;4.50;;
18695;SDS011;22617;43.690;27.956;2023-11-21T07:07:59;7.67;;;4.20;;
18695;SDS011;22617;43.690;27.956;2023-11-21T07:13:07;10.43;;;4.90;;
18695;SDS011;22617;43.690;27.956;2023-11-21T07:18:14;10.47;;;4.97;;
18695;SDS011;22617;43.690;27.956;2023-11-21T07:23:17;9.93;;;4.50;;
18695;SDS011;22617;43.690;27.956;2023-11-21T07:28:22;8.43;;;3.83;;
18695;SDS011;22617;43.690;27.956;2023-11-21T07:33:27;9.90;;;4.40;;
18695;SDS011;22617;43.690;27.956;2023-11-21T07:38:31;8.43;;;4.00;;
18695;SDS011;22617;43.690;27.956;2023-11-21T07:43:36;9.50;;;3.70;;
18695;SDS011;22617;43.690;27.956;2023-11-21T07:48:40;8.90;;;3.57;;
18695;SDS011;22617;43.690;27.956;2023-11-21T07:53:44;10.47;;;4.57;;
18695;SDS011;22617;43.690;27.956;2023-11-21T07:58:50;10.43;;;3.63;;
18695;SDS011;22617;43.690;27.956;2023-11-21T08:03:55;15.70;;;3.60;;
18695;SDS011;22617;43.690;27.956;2023-11-21T08:09:04;19.47;;;3.97;;
18695;SDS011;22617;43.690;27.956;2023-11-21T08:14:11;15.30;;;4.17;;
18695;SDS011;22617;43.690;27.956;2023-11-21T08:19:14;20.70;;;4.23;;
18695;SDS011;22617;43.690;27.956;2023-11-21T08:24:18;23.17;;;4.00;;
18695;SDS011;22617;43.690;27.956;2023-11-21T08:29:23;21.10;;;4.37;;
18695;SDS011;22617;43.690;27.956;2023-11-21T08:34:27;13.30;;;3.63;;
18695;SDS011;22617;43.690;27.956;2023-11-21T08:39:30;6.67;;;2.90;;
18695;SDS011;22617;43.690;27.956;2023-11-21T08:44:35;8.40;;;3.13;;
18695;SDS011;22617;43.690;27.956;2023-11-21T08:49:40;10.93;;;3.10;;
18695;SDS011;22617;43.690;27.956;2023-11-21T08:54:44;6.93;;;2.87;;
18695;SDS011;22617;43.690;27.956;2023-11-21T08:59:48;10.47;;;3.07;;
18695;SDS011;22617;43.690;27.956;2023-11-21T09:04:57;23.20;;;5.07;;
18695;SDS011;22617;43.690;27.956;2023-11-21T09:10:01;16.37;;;3.63;;
18695;SDS011;22617;43.690;27.956;2023-11-21T09:15:07;24.23;;;3.80;;
18695;SDS011;22617;43.690;27.956;2023-11-21T09:20:13;14.00;;;4.13;;
18695;SDS011;22617;43.690;27.956;2023-11-21T09:25:17;15.97;;;3.70;;
18695;SDS011;22617;43.690;27.956;2023-11-21T09:30:22;16.30;;;3.63;;
18695;SDS011;22617;43.690;27.956;2023-11-21T09:35:26;7.37;;;2.70;;
18695;SDS011;22617;43.690;27.956;2023-11-21T09:40:30;4.73;;;2.27;;
18695;SDS011;22617;43.690;27.956;2023-11-21T09:45:35;8.63;;;2.60;;
18695;SDS011;22617;43.690;27.956;2023-11-21T09:50:42;6.80;;;2.70;;
18695;SDS011;22617;43.690;27.956;2023-11-21T09:55:47;5.37;;;2.40;;
18695;SDS011;22617;43.690;27.956;2023-11-21T10:00:55;5.80;;;2.60;;
18695;SDS011;22617;43.690;27.956;2023-11-21T10:06:00;5.87;;;2.70;;
18695;SDS011;22617;43.690;27.956;2023-11-21T10:11:07;4.90;;;2.40;;
18695;SDS011;22617;43.690;27.956;2023-11-21T10:16:15;5.73;;;2.20;;
18695;SDS011;22617;43.690;27.956;2023-11-21T10:21:23;5.53;;;2.00;;
18695;SDS011;22617;43.690;27.956;2023-11-21T10:26:26;5.50;;;2.10;;
18695;SDS011;22617;43.690;27.956;2023-11-21T10:31:48;4.77;;;2.17;;
18695;SDS011;22617;43.690;27.956;2023-11-21T10:36:52;4.53;;;2.03;;
18695;SDS011;22617;43.690;27.956;2023-11-21T10:41:59;3.70;;;2.03;;
18695;SDS011;22617;43.690;27.956;2023-11-21T10:47:04;5.47;;;2.53;;
18695;SDS011;22617;43.690;27.956;2023-11-21T10:52:08;6.87;;;2.17;;
18695;SDS011;22617;43.690;27.956;2023-11-21T10:57:19;4.27;;;2.00;;
18695;SDS011;22617;43.690;27.956;2023-11-21T11:02:27;3.70;;;1.80;;
18695;SDS011;22617;43.690;27.956;2023-11-21T11:07:34;4.60;;;1.90;;
18695;SDS011;22617;43.690;27.956;2023-11-21T11:12:40;5.10;;;2.37;;
18695;SDS011;22617;43.690;27.956;2023-11-21T11:17:45;7.70;;;2.30;;
18695;SDS011;22617;43.690;27.956;2023-11-21T11:22:50;11.07;;;2.00;;
18695;SDS011;22617;43.690;27.956;2023-11-21T11:28:10;8.67;;;1.77;;
18695;SDS011;22617;43.690;27.956;2023-11-21T11:33:21;7.07;;;1.40;;
18695;SDS011;22617;43.690;27.956;2023-11-21T11:38:35;4.93;;;1.60;;
18695;SDS011;22617;43.690;27.956;2023-11-21T11:43:38;5.47;;;1.57;;
18695;SDS011;22617;43.690;27.956;2023-11-21T11:48:48;3.43;;;1.40;;
18695;SDS011;22617;43.690;27.956;2023-11-21T11:54:05;4.07;;;1.40;;
18695;SDS011;22617;43.690;27.956;2023-11-21T11:59:09;2.80;;;1.20;;
18695;SDS011;22617;43.690;27.956;2023-11-21T12:04:27;3.27;;;1.10;;
18695;SDS011;22617;43.690;27.956;2023-11-21T12:09:36;3.47;;;1.10;;
18695;SDS011;22617;43.690;27.956;2023-11-21T12:14:40;3.10;;;1.13;;
18695;SDS011;22617;43.690;27.956;2023-11-21T12:19:45;3.07;;;1.50;;
18695;SDS011;22617;43.690;27.956;2023-11-21T12:24:48;4.73;;;1.53;;
18695;SDS011;22617;43.690;27.956;2023-11-21T12:29:52;4.07;;;1.63;;
18695;SDS011;22617;43.690;27.956;2023-11-21T12:34:59;4.00;;;1.63;;
18695;SDS011;22617;43.690;27.956;2023-11-21T12:40:05;4.60;;;1.80;;
18695;SDS011;22617;43.690;27.956;2023-11-21T12:45:19;5.83;;;1.80;;
18695;SDS011;22617;43.690;27.956;2023-11-21T12:50:26;6.10;;;1.87;;
18695;SDS011;22617;43.690;27.956;2023-11-21T12:55:33;6.07;;;2.07;;
18695;SDS011;22617;43.690;27.956;2023-11-21T13:00:40;4.37;;;1.67;;
18695;SDS011;22617;43.690;27.956;2023-11-21T13:05:47;5.23;;;1.87;;
18695;SDS011;22617;43.690;27.956;2023-11-21T13:10:55;6.17;;;1.80;;
18695;SDS011;22617;43.690;27.956;2023-11-21T13:16:00;6.80;;;1.80;;
18695;SDS011;22617;43.690;27.956;2023-11-21T13:21:08;4.17;;;1.60;;
18695;SDS011;22617;43.690;27.956;2023-11-21T13:26:15;5.13;;;1.70;;
18695;SDS011;22617;43.690;27.956;2023-11-21T13:31:19;6.77;;;2.00;;
18695;SDS011;22617;43.690;27.956;2023-11-21T13:36:30;5.67;;;1.87;;
18695;SDS011;22617;43.690;27.956;2023-11-21T13:41:35;4.50;;;1.70;;
18695;SDS011;22617;43.690;27.956;2023-11-21T13:46:40;5.60;;;1.70;;
18695;SDS011;22617;43.690;27.956;2023-11-21T13:51:46;7.83;;;2.47;;
18695;SDS011;22617;43.690;27.956;2023-11-21T13:56:54;9.07;;;4.10;;
18695;SDS011;22617;43.690;27.956;2023-11-21T14:01:57;7.43;;;4.73;;
18695;SDS011;22617;43.690;27.956;2023-11-21T14:07:04;6.10;;;3.30;;
18695;SDS011;22617;43.690;27.956;2023-11-21T14:12:24;2.67;;;1.47;;
18695;SDS011;22617;43.690;27.956;2023-11-21T14:17:28;2.70;;;1.60;;
18695;SDS011;22617;43.690;27.956;2023-11-21T14:22:33;3.77;;;1.80;;
18695;SDS011;22617;43.690;27.956;2023-11-21T14:27:38;3.70;;;1.67;;
18695;SDS011;22617;43.690;27.956;2023-11-21T14:32:42;22.73;;;4.60;;
18695;SDS011;22617;43.690;27.956;2023-11-21T14:37:46;9.87;;;3.40;;
18695;SDS011;22617;43.690;27.956;2023-11-21T14:42:51;3.97;;;2.57;;
18695;SDS011;22617;43.690;27.956;2023-11-21T14:47:56;4.70;;;2.90;;
18695;SDS011;22617;43.690;27.956;2023-11-21T14:53:09;4.50;;;2.67;;
18695;SDS011;22617;43.690;27.956;2023-11-21T14:58:14;7.27;;;3.03;;
18695;SDS011;22617;43.690;27.956;2023-11-21T15:03:26;5.70;;;2.70;;
18695;SDS011;22617;43.690;27.956;2023-11-21T15:08:50;7.37;;;2.97;;
18695;SDS011;22617;43.690;27.956;2023-11-21T15:14:01;5.60;;;3.03;;
18695;SDS011;22617;43.690;27.956;2023-11-21T15:19:09;4.50;;;2.47;;
18695;SDS011;22617;43.690;27.956;2023-11-21T15:24:16;6.53;;;3.03;;
18695;SDS011;22617;43.690;27.956;2023-11-21T15:29:19;9.47;;;4.83;;
18695;SDS011;22617;43.690;27.956;2023-11-21T15:34:23;13.97;;;5.77;;
18695;SDS011;22617;43.690;27.956;2023-11-21T15:39:29;10.13;;;4.23;;
18695;SDS011;22617;43.690;27.956;2023-11-21T15:44:33;7.67;;;3.50;;
18695;SDS011;22617;43.690;27.956;2023-11-21T15:49:39;7.13;;;3.60;;
18695;SDS011;22617;43.690;27.956;2023-11-21T15:54:44;7.17;;;2.70;;
18695;SDS011;22617;43.690;27.956;2023-11-21T15:59:48;5.73;;;2.90;;
18695;SDS011;22617;43.690;27.956;2023-11-21T16:04:54;7.33;;;3.40;;
18695;SDS011;22617;43.690;27.956;2023-11-21T16:10:00;7.23;;;3.10;;
18695;SDS011;22617;43.690;27.956;2023-11-21T16:15:04;7.43;;;3.13;;
18695;SDS011;22617;43.690;27.956;2023-11-21T16:20:11;7.60;;;4.70;;
18695;SDS011;22617;43.690;27.956;2023-11-21T16:25:18;6.53;;;3.77;;
18695;SDS011;22617;43.690;27.956;2023-11-21T16:30:22;8.10;;;4.07;;
18695;SDS011;22617;43.690;27.956;2023-11-21T16:35:26;9.97;;;5.13;;
18695;SDS011;22617;43.690;27.956;2023-11-21T16:40:31;8.40;;;5.20;;
18695;SDS011;22617;43.690;27.956;2023-11-21T16:45:35;9.73;;;4.57;;
18695;SDS011;22617;43.690;27.956;2023-11-21T16:50:39;6.60;;;3.83;;
18695;SDS011;22617;43.690;27.956;2023-11-21T16:55:47;6.27;;;3.87;;
18695;SDS011;22617;43.690;27.956;2023-11-21T17:00:51;8.83;;;4.40;;
18695;SDS011;22617;43.690;27.956;2023-11-21T17:05:55;8.73;;;4.80;;
18695;SDS011;22617;43.690;27.956;2023-11-21T17:11:00;9.70;;;4.97;;
18695;SDS011;22617;43.690;27.956;2023-11-21T17:16:05;13.43;;;6.17;;
18695;SDS011;22617;43.690;27.956;2023-11-21T17:21:09;11.93;;;5.93;;
18695;SDS011;22617;43.690;27.956;2023-11-21T17:26:27;8.30;;;4.57;;
18695;SDS011;22617;43.690;27.956;2023-11-21T17:31:33;9.67;;;5.17;;
18695;SDS011;22617;43.690;27.956;2023-11-21T17:36:36;8.37;;;4.60;;
18695;SDS011;22617;43.690;27.956;2023-11-21T17:41:43;6.70;;;4.40;;
18695;SDS011;22617;43.690;27.956;2023-11-21T17:46:47;7.63;;;4.90;;
18695;SDS011;22617;43.690;27.956;2023-11-21T17:51:51;9.07;;;5.10;;
18695;SDS011;22617;43.690;27.956;2023-11-21T17:56:56;11.07;;;6.57;;
18695;SDS011;22617;43.690;27.956;2023-11-21T18:02:00;9.53;;;6.47;;
18695;SDS011;22617;43.690;27.956;2023-11-21T18:07:03;15.03;;;6.43;;
18695;SDS011;22617;43.690;27.956;2023-11-21T18:12:11;11.30;;;6.90;;
18695;SDS011;22617;43.690;27.956;2023-11-21T18:17:14;9.87;;;6.40;;
18695;SDS011;22617;43.690;27.956;2023-11-21T18:22:19;12.57;;;6.90;;
18695;SDS011;22617;43.690;27.956;2023-11-21T18:27:26;13.33;;;6.57;;
18695;SDS011;22617;43.690;27.956;2023-11-21T18:32:30;10.27;;;6.23;;
18695;SDS011;22617;43.690;27.956;2023-11-21T18:37:37;12.87;;;6.20;;
18695;SDS011;22617;43.690;27.956;2023-11-21T18:42:41;8.97;;;5.83;;
18695;SDS011;22617;43.690;27.956;2023-11-21T18:47:47;10.13;;;6.13;;
18695;SDS011;22617;43.690;27.956;2023-11-21T18:52:51;11.40;;;6.53;;
18695;SDS011;22617;43.690;27.956;2023-11-21T18:57:56;9.33;;;5.80;;
18695;SDS011;22617;43.690;27.956;2023-11-21T19:02:59;9.57;;;5.50;;
18695;SDS011;22617;43.690;27.956;2023-11-21T19:08:04;9.33;;;5.40;;
18695;SDS011;22617;43.690;27.956;2023-11-21T19:13:09;9.47;;;6.07;;
18695;SDS011;22617;43.690;27.956;2023-11-21T19:18:12;10.73;;;5.63;;
18695;SDS011;22617;43.690;27.956;2023-11-21T19:23:16;9.17;;;5.07;;
18695;SDS011;22617;43.690;27.956;2023-11-21T19:28:24;7.77;;;5.40;;
18695;SDS011;22617;43.690;27.956;2023-11-21T19:33:28;6.77;;;4.77;;
18695;SDS011;22617;43.690;27.956;2023-11-21T19:38:32;7.57;;;5.10;;
18695;SDS011;22617;43.690;27.956;2023-11-21T19:43:39;7.37;;;4.60;;
18695;SDS011;22617;43.690;27.956;2023-11-21T19:48:42;8.00;;;4.70;;
18695;SDS011;22617;43.690;27.956;2023-11-21T19:53:46;7.53;;;4.63;;
18695;SDS011;22617;43.690;27.956;2023-11-21T19:58:51;6.93;;;4.90;;
18695;SDS011;22617;43.690;27.956;2023-11-21T20:03:55;8.07;;;5.30;;
18695;SDS011;22617;43.690;27.956;2023-11-21T20:08:58;8.67;;;5.23;;
18695;SDS011;22617;43.690;27.956;2023-11-21T20:14:06;6.83;;;4.53;;
18695;SDS011;22617;43.690;27.956;2023-11-21T20:19:10;7.70;;;4.93;;
18695;SDS011;22617;43.690;27.956;2023-11-21T20:24:13;7.77;;;5.03;;
18695;SDS011;22617;43.690;27.956;2023-11-21T20:29:19;8.83;;;5.40;;
18695;SDS011;22617;43.690;27.956;2023-11-21T20:34:24;8.27;;;5.07;;
18695;SDS011;22617;43.690;27.956;2023-11-21T20:39:28;8.63;;;4.90;;
18695;SDS011;22617;43.690;27.956;2023-11-21T20:44:33;10.50;;;5.13;;
18695;SDS011;22617;43.690;27.956;2023-11-21T20:49:39;11.03;;;5.53;;
18695;SDS011;22617;43.690;27.956;2023-11-21T20:54:50;6.83;;;4.80;;
18695;SDS011;22617;43.690;27.956;2023-11-21T20:59:55;7.57;;;4.67;;
18695;SDS011;22617;43.690;27.956;2023-11-21T21:04:59;7.20;;;5.00;;
18695;SDS011;22617;43.690;27.956;2023-11-21T21:10:04;7.93;;;4.57;;
18695;SDS011;22617;43.690;27.956;2023-11-21T21:15:14;8.30;;;4.80;;
18695;SDS011;22617;43.690;27.956;2023-11-21T21:20:17;8.47;;;5.93;;
18695;SDS011;22617;43.690;27.956;2023-11-21T21:25:22;12.67;;;6.87;;
18695;SDS011;22617;43.690;27.956;2023-11-21T21:30:27;15.37;;;8.20;;
18695;SDS011;22617;43.690;27.956;2023-11-21T21:35:30;12.77;;;8.10;;
18695;SDS011;22617;43.690;27.956;2023-11-21T21:40:35;15.03;;;9.10;;
18695;SDS011;22617;43.690;27.956;2023-11-21T21:45:40;13.77;;;9.40;;
18695;SDS011;22617;43.690;27.956;2023-11-21T21:50:45;20.40;;;9.27;;
18695;SDS011;22617;43.690;27.956;2023-11-21T21:55:48;18.50;;;11.17;;
18695;SDS011;22617;43.690;27.956;2023-11-21T22:00:54;21.33;;;10.77;;
18695;SDS011;22617;43.690;27.956;2023-11-21T22:06:01;20.47;;;11.13;;
18695;SDS011;22617;43.690;27.956;2023-11-21T22:11:04;18.13;;;10.90;;
18695;SDS011;22617;43.690;27.956;2023-11-21T22:16:09;20.83;;;12.00;;
18695;SDS011;22617;43.690;27.956;2023-11-21T22:21:13;23.63;;;12.37;;
18695;SDS011;22617;43.690;27.956;2023-11-21T22:26:17;25.33;;;13.23;;
18695;SDS011;22617;43.690;27.956;2023-11-21T22:31:23;23.93;;;13.13;;
18695;SDS011;22617;43.690;27.956;2023-11-21T22:36:27;25.63;;;13.97;;
18695;SDS011;22617;43.690;27.956;2023-11-21T22:41:30;25.60;;;14.63;;
18695;SDS011;22617;43.690;27.956;2023-11-21T22:46:35;26.30;;;14.67;;
18695;SDS011;22617;43.690;27.956;2023-11-21T22:51:44;24.63;;;13.97;;
18695;SDS011;22617;43.690;27.956;2023-11-21T22:56:47;23.20;;;13.70;;
18695;SDS011;22617;43.690;27.956;2023-11-21T23:01:54;24.73;;;14.33;;
18695;SDS011;22617;43.690;27.956;2023-11-21T23:06:57;21.00;;;12.63;;
18695;SDS011;22617;43.690;27.956;2023-11-21T23:12:01;26.90;;;14.60;;
18695;SDS011;22617;43.690;27.956;2023-11-21T23:17:06;28.73;;;14.50;;
18695;SDS011;22617;43.690;27.956;2023-11-21T23:22:10;26.77;;;14.93;;
18695;SDS011;22617;43.690;27.956;2023-11-21T23:27:13;26.10;;;14.93;;
18695;SDS011;22617;43.690;27.956;2023-11-21T23:32:18;24.40;;;14.97;;
18695;SDS011;22617;43.690;27.956;2023-11-21T23:37:21;25.50;;;14.00;;
18695;SDS011;22617;43.690;27.956;2023-11-21T23:42:25;25.03;;;14.23;;
18695;SDS011;22617;43.690;27.956;2023-11-21T23:47:30;23.57;;;12.83;;
18695;SDS011;22617;43.690;27.956;2023-11-21T23:52:33;21.93;;;12.23;;
18695;SDS011;22617;43.690;27.956;2023-11-21T23:57:37;24.90;;;12.47;;
